createdAt,value
2023-05-08T00:02:22.173Z,9.29
2023-05-08T00:04:49.074Z,9.18
2023-05-08T00:07:15.933Z,9.14
2023-05-08T00:09:43.166Z,9.07
2023-05-08T00:12:11.386Z,9.01
2023-05-08T00:14:38.112Z,8.93
2023-05-08T00:17:05.042Z,9.01
2023-05-08T00:19:31.832Z,8.91
2023-05-08T00:21:58.541Z,8.71
2023-05-08T00:24:25.330Z,8.60
2023-05-08T00:26:52.159Z,8.47
2023-05-08T00:29:20.248Z,8.33
2023-05-08T00:31:47.023Z,8.28
2023-05-08T00:34:13.713Z,8.37
2023-05-08T00:36:40.344Z,8.26
2023-05-08T00:39:07.093Z,8.13
2023-05-08T00:41:33.786Z,8.06
2023-05-08T00:44:00.485Z,7.84
2023-05-08T00:46:28.643Z,7.71
2023-05-08T00:48:55.333Z,7.54
2023-05-08T00:51:22.023Z,7.48
2023-05-08T00:53:48.775Z,7.44
2023-05-08T00:56:15.498Z,7.36
2023-05-08T00:58:42.344Z,7.37
2023-05-08T01:01:09.149Z,7.33
2023-05-08T01:03:37.439Z,7.27
2023-05-08T01:06:04.720Z,7.23
2023-05-08T01:08:31.501Z,7.13
2023-05-08T01:11:01.842Z,7.12
2023-05-08T01:13:34.504Z,7.03
2023-05-08T01:16:04.848Z,7.02
2023-05-08T01:18:34.271Z,6.98
2023-05-08T01:21:04.094Z,6.91
2023-05-08T01:24:00.120Z,6.86
2023-05-08T01:27:00.185Z,6.92
2023-05-08T01:29:36.720Z,6.88
2023-05-08T01:32:14.662Z,6.79
2023-05-08T01:34:44.624Z,6.79
2023-05-08T01:37:12.647Z,6.72
2023-05-08T01:39:42.791Z,6.72
2023-05-08T01:42:12.937Z,6.68
2023-05-08T01:44:47.569Z,6.69
2023-05-08T01:47:15.691Z,6.75
2023-05-08T01:49:43.634Z,6.71
2023-05-08T01:52:12.208Z,6.68
2023-05-08T01:54:41.225Z,6.65
2023-05-08T01:57:07.911Z,6.72
2023-05-08T01:59:34.625Z,6.77
2023-05-08T02:02:01.382Z,6.59
2023-05-08T02:04:29.521Z,6.47
2023-05-08T02:06:56.191Z,6.52
2023-05-08T02:09:23.024Z,6.42
2023-05-08T02:11:49.718Z,6.44
2023-05-08T02:14:16.409Z,6.38
2023-05-08T02:16:43.810Z,6.33
2023-05-08T02:19:10.553Z,6.33
2023-05-08T02:21:38.702Z,6.40
2023-05-08T02:24:05.705Z,6.30
2023-05-08T02:26:32.859Z,6.21
2023-05-08T02:28:59.541Z,6.17
2023-05-08T02:31:26.453Z,6.11
2023-05-08T02:33:53.147Z,6.16
2023-05-08T02:36:19.850Z,6.17
2023-05-08T02:38:50.231Z,6.23
2023-05-08T02:41:16.893Z,6.30
2023-05-08T02:43:43.601Z,6.41
2023-05-08T02:46:12.559Z,6.38
2023-05-08T02:48:42.903Z,6.44
2023-05-08T02:51:15.608Z,6.41
2023-05-08T02:53:45.705Z,6.33
2023-05-08T02:56:18.379Z,6.30
2023-05-08T02:58:47.688Z,6.24
2023-05-08T03:01:17.088Z,6.31
2023-05-08T03:03:45.409Z,6.38
2023-05-08T03:06:14.171Z,6.27
2023-05-08T03:08:40.881Z,6.37
2023-05-08T03:11:09.204Z,6.42
2023-05-08T03:13:37.300Z,6.34
2023-05-08T03:16:04.768Z,6.26
2023-05-08T03:18:33.714Z,6.30
2023-05-08T03:21:00.400Z,6.29
2023-05-08T03:23:28.291Z,6.29
2023-05-08T03:25:55.117Z,6.30
2023-05-08T03:28:21.793Z,6.33
2023-05-08T03:30:49.881Z,6.52
2023-05-08T03:33:16.721Z,6.63
2023-05-08T03:35:43.409Z,6.69
2023-05-08T03:38:10.093Z,6.79
2023-05-08T03:40:36.851Z,6.91
2023-05-08T03:43:03.581Z,7.03
2023-05-08T03:45:30.796Z,7.10
2023-05-08T03:47:58.945Z,7.07
2023-05-08T03:50:25.657Z,7.15
2023-05-08T03:52:52.388Z,7.15
2023-05-08T03:55:19.123Z,7.24
2023-05-08T03:57:49.201Z,7.44
2023-05-08T04:00:19.842Z,7.63
2023-05-08T04:02:48.381Z,7.70
2023-05-08T04:05:29.853Z,7.53
2023-05-08T04:07:57.286Z,7.68
2023-05-08T04:10:31.733Z,7.89
2023-05-08T04:13:03.182Z,7.84
2023-05-08T04:15:30.168Z,7.77
2023-05-08T04:17:59.190Z,7.85
2023-05-08T04:20:27.847Z,8.17
2023-05-08T04:22:54.829Z,8.36
2023-05-08T04:25:21.677Z,8.46
2023-05-08T04:27:48.588Z,8.59
2023-05-08T04:30:15.424Z,8.85
2023-05-08T04:32:44.147Z,8.85
2023-05-08T04:35:12.507Z,8.85
2023-05-08T04:37:41.153Z,9.07
2023-05-08T04:40:09.301Z,9.51
2023-05-08T04:42:35.981Z,9.84
2023-05-08T04:45:02.836Z,9.87
2023-05-08T04:47:29.589Z,10.17
2023-05-08T04:49:56.287Z,10.48
2023-05-08T04:52:22.924Z,10.65
2023-05-08T04:54:50.972Z,10.76
2023-05-08T04:57:17.741Z,11.00
2023-05-08T04:59:44.445Z,11.24
2023-05-08T05:02:11.195Z,11.36
2023-05-08T05:04:37.896Z,11.21
2023-05-08T05:07:04.613Z,11.48
2023-05-08T05:09:31.333Z,11.38
2023-05-08T05:11:59.390Z,11.57
2023-05-08T05:14:26.116Z,11.83
2023-05-08T05:16:52.838Z,11.97
2023-05-08T05:19:19.585Z,12.12
2023-05-08T05:21:47.039Z,12.40
2023-05-08T05:24:13.755Z,12.48
2023-05-08T05:26:40.427Z,12.76
2023-05-08T05:29:08.525Z,12.95
2023-05-08T05:31:35.429Z,13.07
2023-05-08T05:34:02.217Z,12.84
2023-05-08T05:36:28.905Z,13.34
2023-05-08T05:38:55.645Z,13.28
2023-05-08T05:41:22.396Z,13.12
2023-05-08T05:43:49.076Z,13.85
2023-05-08T05:46:17.204Z,14.29
2023-05-08T05:48:43.930Z,14.57
2023-05-08T05:51:10.692Z,13.65
2023-05-08T05:53:37.386Z,12.88
2023-05-08T05:56:04.436Z,13.81
2023-05-08T05:58:31.178Z,14.23
2023-05-08T06:00:58.671Z,14.64
2023-05-08T06:03:27.053Z,15.19
2023-05-08T06:05:54.611Z,15.01
2023-05-08T06:08:22.019Z,15.09
2023-05-08T06:10:48.686Z,14.66
2023-05-08T06:13:15.451Z,14.99
2023-05-08T06:15:42.273Z,14.67
2023-05-08T06:18:09.011Z,14.34
2023-05-08T06:20:38.479Z,13.15
2023-05-08T06:23:05.253Z,13.74
2023-05-08T06:25:31.955Z,14.51
2023-05-08T06:27:58.676Z,13.68
2023-05-08T06:30:25.379Z,13.05
2023-05-08T06:32:52.091Z,13.07
2023-05-08T06:35:18.880Z,13.30
2023-05-08T06:37:47.076Z,12.58
2023-05-08T06:40:14.095Z,13.15
2023-05-08T06:42:40.928Z,13.02
2023-05-08T06:45:08.625Z,13.30
2023-05-08T06:47:35.352Z,14.28
2023-05-08T06:50:02.152Z,13.34
2023-05-08T06:52:28.905Z,12.79
2023-05-08T06:54:56.977Z,12.81
2023-05-08T06:57:23.647Z,13.34
2023-05-08T06:59:50.405Z,13.34
2023-05-08T07:02:17.125Z,15.09
2023-05-08T07:04:44.405Z,13.33
2023-05-08T07:07:11.286Z,14.11
2023-05-08T07:09:37.982Z,15.35
2023-05-08T07:12:06.583Z,13.68
2023-05-08T07:14:33.323Z,13.74
2023-05-08T07:17:03.187Z,14.21
2023-05-08T07:19:29.923Z,13.86
2023-05-08T07:21:56.705Z,14.06
2023-05-08T07:24:23.422Z,17.24
2023-05-08T07:26:50.078Z,17.54
2023-05-08T07:29:18.182Z,18.16
2023-05-08T07:31:44.942Z,16.94
2023-05-08T07:34:11.714Z,16.11
2023-05-08T07:36:38.445Z,15.56
2023-05-08T07:39:05.155Z,18.05
2023-05-08T07:41:31.916Z,21.96
2023-05-08T07:43:58.809Z,19.03
2023-05-08T07:46:26.900Z,21.25
2023-05-08T07:48:53.590Z,17.96
2023-05-08T07:51:20.284Z,18.58
2023-05-08T07:53:47.166Z,16.20
2023-05-08T07:56:13.849Z,20.45
2023-05-08T07:58:40.574Z,23.61
2023-05-08T08:01:07.287Z,20.19
2023-05-08T08:03:35.713Z,18.38
2023-05-08T08:06:02.516Z,21.07
2023-05-08T08:08:29.180Z,25.96
2023-05-08T08:10:55.896Z,28.26
2023-05-08T08:13:25.728Z,23.50
2023-05-08T08:15:52.918Z,22.58
2023-05-08T08:18:19.718Z,22.29
2023-05-08T08:20:47.912Z,25.69
2023-05-08T08:23:14.644Z,22.78
2023-05-08T08:25:41.525Z,22.38
2023-05-08T08:28:08.281Z,27.46
2023-05-08T08:30:35.071Z,27.78
2023-05-08T08:33:02.209Z,29.45
2023-05-08T08:35:29.065Z,23.60
2023-05-08T08:37:57.180Z,26.10
2023-05-08T08:40:24.049Z,26.69
2023-05-08T08:42:50.781Z,29.49
2023-05-08T08:45:17.618Z,30.52
2023-05-08T08:47:44.825Z,31.17
2023-05-08T08:50:14.539Z,32.43
2023-05-08T08:52:45.346Z,29.33
2023-05-08T08:55:15.887Z,29.10
2023-05-08T08:57:51.921Z,29.10
2023-05-08T09:00:19.784Z,23.98
2023-05-08T09:02:46.538Z,24.19
2023-05-08T09:05:13.534Z,29.58
2023-05-08T09:07:40.516Z,30.41
2023-05-08T09:10:08.135Z,25.35
2023-05-08T09:12:36.226Z,24.15
2023-05-08T09:15:03.034Z,23.47
2023-05-08T09:17:29.771Z,23.34
2023-05-08T09:19:56.477Z,28.64
2023-05-08T09:22:23.174Z,28.02
2023-05-08T09:24:56.553Z,30.08
2023-05-08T09:27:23.281Z,30.96
2023-05-08T09:30:01.827Z,25.29
2023-05-08T09:32:29.258Z,23.86
2023-05-08T09:34:55.923Z,25.80
2023-05-08T09:37:22.633Z,26.16
2023-05-08T09:39:49.359Z,29.56
2023-05-08T09:42:16.092Z,27.55
2023-05-08T09:44:46.379Z,27.04
2023-05-08T09:47:15.188Z,26.98
2023-05-08T09:49:56.071Z,30.51
2023-05-08T09:52:23.085Z,28.64
2023-05-08T09:54:50.716Z,29.19
2023-05-08T09:57:17.470Z,21.97
2023-05-08T09:59:44.164Z,24.55
2023-05-08T10:02:11.124Z,26.04
2023-05-08T10:04:39.310Z,28.64
2023-05-08T10:07:06.246Z,23.28
2023-05-08T10:09:43.005Z,24.19
2023-05-08T10:12:14.226Z,31.67
2023-05-08T10:14:41.217Z,26.27
2023-05-08T10:17:08.977Z,24.94
2023-05-08T10:19:35.853Z,27.77
2023-05-08T10:22:03.857Z,26.10
2023-05-08T10:24:32.679Z,23.73
2023-05-08T10:27:07.308Z,26.68
2023-05-08T10:29:37.889Z,27.17
2023-05-08T10:32:04.986Z,31.72
2023-05-08T10:34:31.680Z,32.17
2023-05-08T10:36:58.408Z,30.17
2023-05-08T10:39:26.553Z,24.71
2023-05-08T10:41:53.199Z,23.97
2023-05-08T10:44:19.942Z,24.83
2023-05-08T10:46:51.192Z,23.28
2023-05-08T10:49:20.476Z,30.49
2023-05-08T10:51:52.933Z,30.17
2023-05-08T10:54:21.404Z,29.66
2023-05-08T10:56:50.120Z,26.17
2023-05-08T10:59:20.049Z,29.93
2023-05-08T11:01:47.839Z,30.78
2023-05-08T11:04:23.908Z,27.81
2023-05-08T11:06:50.871Z,33.00
2023-05-08T11:09:21.785Z,32.63
2023-05-08T11:12:08.597Z,28.23
2023-05-08T11:14:36.712Z,26.52
2023-05-08T11:17:07.109Z,31.34
2023-05-08T11:19:34.024Z,30.75
2023-05-08T11:22:20.622Z,34.18
2023-05-08T11:24:48.465Z,27.51
2023-05-08T11:27:16.639Z,26.14
2023-05-08T11:29:43.398Z,24.11
2023-05-08T11:32:10.274Z,23.61
2023-05-08T11:34:46.566Z,28.02
2023-05-08T11:37:17.247Z,30.66
2023-05-08T11:39:44.051Z,32.09
2023-05-08T11:42:37.032Z,30.49
2023-05-08T11:45:05.209Z,29.36
2023-05-08T11:47:35.727Z,27.68
2023-05-08T11:50:02.623Z,32.81
2023-05-08T11:52:31.402Z,31.68
2023-05-08T11:55:01.221Z,34.08
2023-05-08T11:57:28.055Z,33.53
2023-05-08T11:59:56.184Z,26.03
2023-05-08T12:02:35.299Z,29.01
2023-05-08T12:05:02.147Z,32.70
2023-05-08T12:07:28.992Z,33.83
2023-05-08T12:09:55.786Z,32.92
2023-05-08T12:12:22.498Z,31.16
2023-05-08T12:14:49.913Z,26.24
2023-05-08T12:17:18.702Z,25.46
2023-05-08T12:19:45.562Z,26.03
2023-05-08T12:22:12.435Z,24.32
2023-05-08T12:24:39.349Z,25.98
2023-05-08T12:27:06.076Z,24.76
2023-05-08T12:29:36.005Z,26.32
2023-05-08T12:32:02.690Z,23.37
2023-05-08T12:34:30.799Z,23.97
2023-05-08T12:37:03.799Z,26.75
2023-05-08T12:39:36.381Z,25.76
2023-05-08T12:42:03.172Z,22.48
2023-05-08T12:44:29.945Z,23.39
2023-05-08T12:46:57.104Z,23.40
2023-05-08T12:49:25.740Z,24.12
2023-05-08T12:52:00.305Z,22.91
2023-05-08T12:54:32.517Z,24.53
2023-05-08T12:56:59.217Z,23.43
2023-05-08T12:59:29.034Z,21.79
2023-05-08T13:01:55.786Z,22.76
2023-05-08T13:04:22.542Z,28.94
2023-05-08T13:06:55.610Z,25.45
2023-05-08T13:09:22.311Z,25.98
2023-05-08T13:11:49.165Z,24.02
2023-05-08T13:14:15.843Z,29.60
2023-05-08T13:16:43.209Z,30.89
2023-05-08T13:19:10.278Z,26.72
2023-05-08T13:21:37.225Z,25.27
2023-05-08T13:24:05.960Z,24.44
2023-05-08T13:26:32.675Z,24.43
2023-05-08T13:28:59.383Z,22.06
2023-05-08T13:31:26.109Z,23.15
2023-05-08T13:33:52.825Z,27.38
2023-05-08T13:36:19.566Z,25.97
2023-05-08T13:38:46.309Z,24.86
2023-05-08T13:41:14.424Z,22.21
2023-05-08T13:43:41.319Z,23.40
2023-05-08T13:46:08.011Z,23.57
2023-05-08T13:48:34.745Z,24.92
2023-05-08T13:51:01.528Z,28.44
2023-05-08T13:53:28.233Z,23.47
2023-05-08T13:55:54.998Z,22.71
2023-05-08T13:58:23.401Z,23.10
2023-05-08T14:00:51.420Z,22.52
2023-05-08T14:03:18.186Z,21.32
2023-05-08T14:05:44.957Z,22.55
2023-05-08T14:08:11.667Z,24.39
2023-05-08T14:10:38.371Z,26.18
2023-05-08T14:13:05.200Z,29.42
2023-05-08T14:15:37.059Z,27.72
2023-05-08T14:18:04.331Z,28.20
2023-05-08T14:20:31.141Z,25.17
2023-05-08T14:23:00.041Z,25.70
2023-05-08T14:25:27.020Z,27.51
2023-05-08T14:27:53.772Z,24.19
2023-05-08T14:30:20.588Z,25.15
2023-05-08T14:32:48.885Z,26.90
2023-05-08T14:35:15.990Z,26.68
2023-05-08T14:37:42.830Z,24.40
2023-05-08T14:40:09.804Z,25.18
2023-05-08T14:42:36.515Z,27.36
2023-05-08T14:45:03.600Z,26.10
2023-05-08T14:47:30.418Z,25.94
2023-05-08T14:49:58.596Z,27.38
2023-05-08T14:52:25.327Z,23.57
2023-05-08T14:54:52.201Z,25.28
2023-05-08T14:57:19.021Z,26.20
2023-05-08T14:59:54.199Z,25.46
2023-05-08T15:02:22.147Z,25.04
2023-05-08T15:04:48.916Z,24.40
2023-05-08T15:07:16.969Z,23.65
2023-05-08T15:09:43.708Z,24.61
2023-05-08T15:12:10.421Z,24.19
2023-05-08T15:14:37.068Z,22.82
2023-05-08T15:17:03.912Z,22.71
2023-05-08T15:19:30.640Z,22.57
2023-05-08T15:21:57.363Z,22.62
2023-05-08T15:24:25.451Z,22.81
2023-05-08T15:26:52.161Z,22.76
2023-05-08T15:29:18.814Z,22.03
2023-05-08T15:31:45.598Z,21.73
2023-05-08T15:34:12.324Z,22.91
2023-05-08T15:36:39.066Z,23.12
2023-05-08T15:39:05.807Z,25.42
2023-05-08T15:41:33.836Z,24.16
2023-05-08T15:44:00.594Z,22.76
2023-05-08T15:46:27.327Z,24.22
2023-05-08T15:48:54.061Z,24.42
2023-05-08T15:51:20.734Z,23.36
2023-05-08T15:53:47.694Z,22.38
2023-05-08T15:56:14.401Z,22.00
2023-05-08T15:58:42.483Z,21.25
2023-05-08T16:01:09.248Z,21.58
2023-05-08T16:03:36.056Z,20.86
2023-05-08T16:06:02.807Z,20.26
2023-05-08T16:08:29.577Z,19.90
2023-05-08T16:10:56.283Z,19.87
2023-05-08T16:13:23.072Z,19.40
2023-05-08T16:15:51.248Z,18.91
2023-05-08T16:18:17.960Z,18.57
2023-05-08T16:20:44.638Z,18.63
2023-05-08T17:26:10.267Z,15.42
2023-05-08T17:28:37.007Z,15.25
2023-05-08T17:31:03.853Z,15.18
2023-05-08T17:33:30.784Z,15.12
2023-05-08T17:35:57.671Z,15.17
2023-05-08T17:38:24.472Z,14.97
2023-05-08T17:40:51.207Z,14.84
2023-05-08T17:43:20.673Z,14.80
2023-05-08T17:45:48.247Z,14.74
2023-05-08T17:48:15.162Z,14.57
2023-05-08T17:50:41.914Z,14.55
2023-05-08T17:53:08.749Z,14.44
2023-05-08T17:55:35.604Z,14.32
2023-05-08T17:58:02.415Z,14.26
2023-05-08T18:00:30.864Z,14.12
2023-05-08T18:02:57.760Z,14.06
2023-05-08T18:05:24.542Z,13.94
2023-05-08T18:07:51.250Z,13.88
2023-05-08T18:10:18.280Z,13.86
2023-05-08T18:12:45.091Z,13.73
2023-05-08T18:15:12.317Z,13.68
2023-05-08T18:17:40.540Z,13.58
2023-05-08T18:20:10.829Z,13.48
2023-05-08T18:22:37.644Z,13.47
2023-05-08T18:25:05.001Z,13.42
2023-05-08T18:27:31.965Z,13.28
2023-05-08T18:29:58.651Z,13.22
2023-05-08T18:32:25.784Z,13.16
2023-05-08T18:34:53.907Z,13.12
2023-05-08T18:37:20.992Z,12.99
2023-05-08T18:39:47.789Z,12.92
2023-05-08T18:42:14.481Z,12.78
2023-05-08T18:44:41.139Z,12.71
2023-05-08T18:47:07.937Z,12.52
2023-05-08T18:49:34.628Z,12.61
2023-05-08T18:52:02.707Z,12.64
2023-05-08T18:54:29.533Z,12.41
2023-05-08T18:56:56.260Z,12.36
2023-05-08T18:59:22.948Z,12.34
2023-05-08T19:01:50.121Z,12.34
2023-05-08T19:04:16.878Z,12.24
2023-05-08T19:06:43.613Z,12.20
2023-05-08T19:09:11.685Z,12.14
2023-05-08T19:11:38.348Z,12.12
2023-05-08T19:14:05.056Z,12.10
2023-05-08T19:16:31.842Z,12.01
2023-05-08T19:18:58.623Z,11.94
2023-05-08T19:21:25.328Z,11.93
2023-05-08T19:23:52.038Z,11.92
2023-05-08T19:26:20.090Z,11.78
2023-05-08T19:28:46.897Z,11.78
2023-05-08T19:31:13.713Z,11.65
2023-05-08T19:33:40.414Z,11.59
2023-05-08T19:36:07.277Z,11.63
2023-05-08T19:38:34.160Z,11.57
2023-05-08T19:41:00.843Z,11.39
2023-05-08T19:43:28.932Z,11.41
2023-05-08T19:45:55.919Z,11.39
2023-05-08T19:48:22.793Z,11.35
2023-05-08T19:50:49.929Z,11.35
2023-05-08T19:53:17.642Z,11.24
2023-05-08T19:55:44.346Z,11.21
2023-05-08T19:58:10.991Z,11.14
2023-05-08T20:00:39.068Z,11.23
2023-05-08T20:03:05.824Z,11.11
2023-05-08T20:05:32.612Z,11.04
2023-05-08T20:07:59.447Z,11.04
2023-05-08T20:10:26.341Z,10.99
2023-05-08T20:12:53.142Z,10.90
2023-05-08T20:15:19.958Z,10.84
2023-05-08T20:17:48.165Z,10.79
2023-05-08T20:20:15.604Z,10.77
2023-05-08T20:22:42.498Z,10.81
2023-05-08T20:25:09.165Z,10.73
2023-05-08T20:27:35.973Z,10.70
2023-05-08T20:30:02.915Z,10.55
2023-05-08T20:32:29.708Z,10.46
2023-05-08T20:34:57.861Z,10.35
2023-05-08T20:37:24.625Z,10.57
2023-05-08T20:39:51.290Z,10.46
2023-05-08T20:42:17.971Z,10.38
2023-05-08T20:44:44.810Z,10.56
2023-05-08T20:47:11.533Z,10.48
2023-05-08T20:49:38.200Z,10.53
2023-05-08T20:52:06.363Z,10.41
2023-05-08T20:54:33.004Z,10.45
2023-05-08T20:56:59.707Z,10.39
2023-05-08T20:59:26.434Z,10.45
2023-05-08T21:01:53.078Z,10.35
2023-05-08T21:04:19.814Z,10.26
2023-05-08T21:06:46.570Z,10.18
2023-05-08T21:09:14.630Z,10.26
2023-05-08T21:11:41.322Z,10.21
2023-05-08T21:14:08.126Z,10.18
2023-05-08T21:16:34.941Z,10.14
2023-05-08T21:19:01.744Z,10.07
2023-05-08T21:21:28.522Z,10.17
2023-05-08T21:23:55.165Z,10.07
2023-05-08T21:26:23.370Z,10.11
2023-05-08T21:28:50.124Z,10.08
2023-05-08T21:31:16.954Z,10.05
2023-05-08T21:33:43.677Z,9.93
2023-05-08T21:36:10.416Z,9.95
2023-05-08T21:38:37.097Z,9.94
2023-05-08T21:41:06.933Z,9.74
2023-05-08T21:43:35.109Z,9.61
2023-05-08T21:46:03.804Z,9.59
2023-05-08T21:48:30.536Z,9.60
2023-05-08T21:50:57.387Z,9.51
2023-05-08T21:53:24.069Z,9.44
2023-05-08T21:55:50.749Z,9.46
2023-05-08T21:58:17.498Z,9.35
2023-05-08T22:00:45.678Z,9.36
2023-05-08T22:03:12.486Z,9.32
2023-05-08T22:05:39.258Z,9.26
2023-05-08T22:08:06.379Z,9.26
2023-05-08T22:10:33.090Z,9.29
2023-05-08T22:12:59.884Z,9.21
2023-05-08T22:15:30.265Z,9.12
2023-05-08T22:17:59.205Z,9.16
2023-05-08T22:20:26.193Z,9.23
2023-05-08T22:22:52.883Z,9.04
2023-05-08T22:25:19.636Z,9.12
2023-05-08T22:27:46.317Z,9.23
2023-05-08T22:30:13.267Z,9.08
2023-05-08T22:32:39.982Z,8.97
2023-05-08T22:35:08.590Z,9.02
2023-05-08T22:37:35.363Z,8.93
2023-05-08T22:40:02.030Z,8.82
2023-05-08T22:42:28.899Z,8.77
2023-05-08T22:44:55.551Z,8.73
2023-05-08T22:47:22.308Z,8.59
2023-05-08T22:49:49.008Z,8.39
2023-05-08T22:52:17.131Z,8.23
2023-05-08T22:54:43.827Z,8.13
2023-05-08T22:57:10.632Z,8.06
2023-05-08T22:59:37.322Z,7.98
2023-05-08T23:02:04.007Z,7.99
2023-05-08T23:04:30.765Z,8.06
2023-05-08T23:06:57.443Z,8.03
2023-05-08T23:09:25.500Z,7.99
2023-05-08T23:11:52.243Z,7.94
2023-05-08T23:14:18.927Z,8.05
2023-05-08T23:16:45.649Z,7.84
2023-05-08T23:19:12.409Z,8.10
2023-05-08T23:21:39.123Z,7.95
2023-05-08T23:24:06.392Z,7.74
2023-05-08T23:26:34.460Z,7.57
2023-05-08T23:29:01.217Z,7.46
2023-05-08T23:31:28.017Z,7.47
2023-05-08T23:33:54.853Z,7.47
2023-05-08T23:36:21.509Z,7.47
2023-05-08T23:38:48.220Z,7.42
2023-05-08T23:41:14.934Z,7.34
2023-05-08T23:43:43.081Z,7.10
2023-05-08T23:46:09.850Z,6.84
2023-05-08T23:48:36.702Z,6.67
2023-05-08T23:51:03.550Z,6.55
2023-05-08T23:53:30.260Z,6.48
2023-05-08T23:55:56.927Z,6.29
2023-05-08T23:58:23.609Z,6.17
